createdAt,value
2022-10-11T00:02:52.351Z,95.64
2022-10-11T00:05:54.442Z,95.56
2022-10-11T00:08:56.108Z,95.64
2022-10-11T00:11:58.052Z,95.88
2022-10-11T00:15:01.040Z,95.94
2022-10-11T00:18:05.556Z,95.75
2022-10-11T00:21:08.442Z,95.47
2022-10-11T00:24:10.256Z,95.72
2022-10-11T00:27:11.828Z,95.56
2022-10-11T00:30:15.003Z,95.52
2022-10-11T00:33:16.549Z,95.20
2022-10-11T00:36:18.917Z,95.21
2022-10-11T00:39:21.221Z,95.08
2022-10-11T00:42:23.502Z,95.30
2022-10-11T00:45:43.863Z,94.92
2022-10-11T00:48:49.026Z,95.22
2022-10-11T00:51:52.605Z,94.96
2022-10-11T00:54:54.101Z,95.27
2022-10-11T00:57:56.551Z,95.43
2022-10-11T01:00:58.466Z,95.47
2022-10-11T01:04:01.794Z,95.11
2022-10-11T01:07:03.682Z,95.07
2022-10-11T01:10:05.599Z,94.79
2022-10-11T01:13:11.508Z,94.93
2022-10-11T01:16:15.758Z,94.69
2022-10-11T01:19:30.903Z,94.87
2022-10-11T01:22:50.793Z,95.12
2022-10-11T01:26:06.221Z,95.09
2022-10-11T01:29:12.566Z,95.22
2022-10-11T01:32:17.268Z,95.12
2022-10-11T01:35:21.580Z,95.38
2022-10-11T01:38:28.063Z,95.38
2022-10-11T01:41:31.605Z,95.52
2022-10-11T01:44:34.568Z,95.38
2022-10-11T01:47:41.158Z,95.26
2022-10-11T01:50:44.611Z,95.63
2022-10-11T01:53:52.861Z,95.65
2022-10-11T01:57:04.576Z,95.19
2022-10-11T02:00:12.194Z,95.38
2022-10-11T02:03:21.086Z,95.47
2022-10-11T02:06:26.981Z,95.52
2022-10-11T02:09:33.959Z,95.85
2022-10-11T02:12:37.737Z,95.71
2022-10-11T02:15:40.638Z,95.75
2022-10-11T02:18:46.933Z,95.68
2022-10-11T02:22:04.139Z,95.57
2022-10-11T02:25:08.129Z,95.52
2022-10-11T02:28:11.767Z,95.79
2022-10-11T02:31:15.256Z,95.71
2022-10-11T02:34:23.378Z,95.71
2022-10-11T02:37:28.093Z,95.37
2022-10-11T02:40:31.189Z,95.52
2022-10-11T02:43:36.852Z,95.72
2022-10-11T02:46:39.185Z,95.57
2022-10-11T02:49:42.216Z,95.84
2022-10-11T02:52:43.963Z,95.70
2022-10-11T02:55:45.945Z,95.78
2022-10-11T02:58:47.513Z,95.62
2022-10-11T03:01:49.262Z,95.83
2022-10-11T03:04:52.718Z,95.86
2022-10-11T03:07:54.382Z,95.75
2022-10-11T03:10:56.101Z,96.07
2022-10-11T03:13:57.684Z,95.85
2022-10-11T03:17:12.297Z,96.07
2022-10-11T03:20:20.527Z,95.80
2022-10-11T03:23:22.176Z,96.34
2022-10-11T03:26:23.761Z,96.66
2022-10-11T03:29:25.477Z,96.54
2022-10-11T03:32:27.406Z,96.97
2022-10-11T03:35:30.452Z,96.92
2022-10-11T03:38:32.246Z,96.83
2022-10-11T03:41:33.822Z,96.87
2022-10-11T03:44:35.419Z,97.33
2022-10-11T03:47:37.865Z,97.45
2022-10-11T03:50:40.780Z,97.62
2022-10-11T03:53:42.344Z,97.76
2022-10-11T03:56:44.491Z,97.39
2022-10-11T03:59:46.077Z,97.70
2022-10-11T04:02:49.927Z,97.27
2022-10-11T04:05:53.031Z,97.14
2022-10-11T04:08:55.674Z,97.16
2022-10-11T04:11:59.871Z,97.19
2022-10-11T04:15:01.523Z,97.22
2022-10-11T04:18:03.080Z,97.68
2022-10-11T04:21:06.388Z,97.11
2022-10-11T04:24:09.674Z,96.85
2022-10-11T04:27:11.163Z,96.76
2022-10-11T04:30:13.463Z,96.69
2022-10-11T04:33:15.059Z,96.56
2022-10-11T04:36:18.653Z,97.03
2022-10-11T04:39:20.642Z,96.58
2022-10-11T04:42:22.356Z,97.00
2022-10-11T04:45:23.889Z,96.67
2022-10-11T04:48:25.647Z,96.78
2022-10-11T04:51:28.957Z,96.39
2022-10-11T04:54:30.531Z,96.28
2022-10-11T04:57:32.124Z,96.38
2022-10-11T05:00:33.794Z,96.32
2022-10-11T05:03:35.562Z,96.10
2022-10-11T05:06:38.887Z,96.20
2022-10-11T05:09:40.501Z,96.06
2022-10-11T05:12:41.998Z,96.29
2022-10-11T05:15:43.755Z,96.35
2022-10-11T05:18:48.303Z,96.19
2022-10-11T05:21:51.291Z,96.13
2022-10-11T05:24:52.929Z,95.70
2022-10-11T05:27:54.473Z,95.84
2022-10-11T05:30:56.382Z,96.13
2022-10-11T05:33:58.151Z,96.14
2022-10-11T05:37:01.115Z,96.02
2022-10-11T05:40:02.651Z,96.20
2022-10-11T05:43:04.481Z,96.33
2022-10-11T05:46:06.857Z,95.79
2022-10-11T05:49:09.346Z,95.86
2022-10-11T05:52:13.457Z,96.03
2022-10-11T05:55:15.170Z,95.74
2022-10-11T05:58:18.987Z,96.01
2022-10-11T06:01:21.849Z,95.95
2022-10-11T06:04:23.589Z,95.84
2022-10-11T06:07:26.734Z,96.02
2022-10-11T06:10:28.481Z,96.17
2022-10-11T06:13:30.130Z,96.26
2022-10-11T06:16:31.758Z,96.48
2022-10-11T06:19:33.514Z,96.00
2022-10-11T06:22:36.919Z,96.53
2022-10-11T06:25:38.435Z,96.36
2022-10-11T06:28:40.086Z,96.39
2022-10-11T06:31:41.787Z,96.45
2022-10-11T06:34:43.304Z,96.62
2022-10-11T06:37:46.517Z,96.52
2022-10-11T06:40:48.266Z,96.93
2022-10-11T06:43:49.934Z,96.73
2022-10-11T06:46:51.635Z,96.79
2022-10-11T06:49:53.098Z,97.03
2022-10-11T06:52:56.290Z,96.89
2022-10-11T06:56:01.915Z,97.15
2022-10-11T06:59:03.954Z,96.92
2022-10-11T07:02:05.563Z,96.90
2022-10-11T07:05:07.661Z,97.01
2022-10-11T07:08:10.891Z,96.88
2022-10-11T07:11:16.438Z,97.06
2022-10-11T07:14:17.930Z,97.46
2022-10-11T07:17:19.707Z,97.14
2022-10-11T07:20:21.369Z,97.61
2022-10-11T07:23:25.225Z,97.53
2022-10-11T07:26:26.853Z,97.66
2022-10-11T07:29:28.457Z,97.68
2022-10-11T07:32:30.163Z,97.53
2022-10-11T07:35:34.154Z,97.74
2022-10-11T07:38:38.743Z,97.53
2022-10-11T07:41:44.769Z,97.87
2022-10-11T07:44:47.546Z,97.83
2022-10-11T07:47:49.313Z,97.42
2022-10-11T07:50:50.847Z,97.87
2022-10-11T07:53:54.526Z,97.60
2022-10-11T07:56:56.435Z,97.36
2022-10-11T07:59:57.992Z,97.12
2022-10-11T08:03:04.476Z,97.49
2022-10-11T08:06:07.612Z,97.23
2022-10-11T08:09:12.798Z,97.29
2022-10-11T08:12:14.561Z,97.11
2022-10-11T08:15:16.181Z,96.82
2022-10-11T08:18:18.413Z,96.84
2022-10-11T08:21:20.556Z,97.01
2022-10-11T08:24:25.088Z,96.92
2022-10-11T08:27:26.715Z,97.03
2022-10-11T08:30:28.421Z,96.78
2022-10-11T08:33:31.080Z,96.55
2022-10-11T08:36:33.364Z,96.64
2022-10-11T08:39:36.910Z,96.54
2022-10-11T08:42:41.634Z,96.72
2022-10-11T08:45:45.575Z,96.26
2022-10-11T08:48:48.597Z,96.27
2022-10-11T08:51:52.855Z,96.41
2022-10-11T08:54:58.384Z,96.37
2022-10-11T08:58:02.179Z,96.05
2022-10-11T09:01:04.101Z,96.05
2022-10-11T09:04:06.234Z,95.95
2022-10-11T09:07:13.444Z,95.61
2022-10-11T09:10:29.416Z,95.71
2022-10-11T09:13:44.070Z,94.92
2022-10-11T09:16:52.543Z,94.96
2022-10-11T09:20:02.789Z,95.20
2022-10-11T09:23:10.527Z,95.31
2022-10-11T09:26:23.148Z,94.65
2022-10-11T09:29:32.720Z,94.04
2022-10-11T09:32:37.356Z,94.13
2022-10-11T09:35:40.982Z,93.44
2022-10-11T09:38:49.558Z,92.04
2022-10-11T09:41:55.785Z,91.72
2022-10-11T09:44:57.656Z,91.85
2022-10-11T09:48:06.387Z,91.35
2022-10-11T09:51:12.810Z,90.89
2022-10-11T09:54:14.441Z,91.17
2022-10-11T09:57:21.816Z,90.21
2022-10-11T10:00:24.486Z,90.18
2022-10-11T10:03:27.728Z,90.45
2022-10-11T10:06:29.368Z,90.07
2022-10-11T10:09:31.136Z,89.70
2022-10-11T10:12:34.054Z,89.37
2022-10-11T10:15:38.256Z,88.45
2022-10-11T10:18:44.112Z,87.92
2022-10-11T10:21:46.909Z,87.11
2022-10-11T10:24:49.523Z,87.04
2022-10-11T10:28:00.630Z,85.64
2022-10-11T10:31:02.515Z,85.69
2022-10-11T10:34:06.481Z,84.76
2022-10-11T10:37:13.347Z,84.98
2022-10-11T10:40:17.146Z,85.30
2022-10-11T10:43:22.029Z,84.90
2022-10-11T10:46:36.040Z,84.38
2022-10-11T10:49:55.746Z,83.84
2022-10-11T10:53:04.458Z,83.68
2022-10-11T10:56:10.012Z,83.92
2022-10-11T10:59:20.174Z,82.92
2022-10-11T11:05:48.485Z,81.79
2022-10-11T11:08:57.160Z,81.86
2022-10-11T11:12:03.287Z,81.72
2022-10-11T11:15:10.264Z,81.95
2022-10-11T11:18:20.449Z,80.87
2022-10-11T11:21:30.133Z,80.38
2022-10-11T11:24:40.272Z,80.00
2022-10-11T11:27:51.293Z,78.73
2022-10-11T11:30:58.517Z,78.60
2022-10-11T11:34:05.237Z,77.61
2022-10-11T11:37:16.545Z,78.58
2022-10-11T11:40:20.138Z,78.33
2022-10-11T11:43:24.068Z,77.13
2022-10-11T11:46:29.077Z,76.92
2022-10-11T11:49:35.833Z,76.71
2022-10-11T11:52:40.768Z,77.06
2022-10-11T11:55:48.377Z,77.67
2022-10-11T11:58:53.755Z,77.90
2022-10-11T12:02:02.315Z,77.74
2022-10-11T12:05:06.030Z,77.75
2022-10-11T12:08:08.897Z,77.54
2022-10-11T12:11:19.552Z,77.29
2022-10-11T12:14:34.070Z,76.56
2022-10-11T12:17:58.489Z,74.24
2022-10-11T12:21:05.848Z,73.34
2022-10-11T12:24:12.235Z,72.58
2022-10-11T12:27:29.015Z,73.88
2022-10-11T12:31:01.045Z,73.84
2022-10-11T12:34:21.345Z,72.24
2022-10-11T12:37:41.569Z,69.84
2022-10-11T12:40:47.283Z,69.19
2022-10-11T12:44:04.086Z,70.36
2022-10-11T12:47:16.138Z,70.30
2022-10-11T12:50:19.939Z,70.70
2022-10-11T12:53:32.386Z,72.09
2022-10-11T12:56:42.695Z,69.47
2022-10-11T12:59:45.494Z,69.23
2022-10-11T13:02:48.239Z,70.04
2022-10-11T13:05:53.743Z,70.25
2022-10-11T13:09:00.096Z,70.22
2022-10-11T13:12:05.542Z,70.36
2022-10-11T13:15:12.068Z,70.26
2022-10-11T13:18:14.398Z,70.30
2022-10-11T13:21:26.017Z,70.03
2022-10-11T13:24:28.617Z,70.11
2022-10-11T13:27:31.760Z,69.71
2022-10-11T13:30:34.877Z,69.37
2022-10-11T13:33:40.211Z,69.67
2022-10-11T13:36:42.541Z,69.94
2022-10-11T13:39:45.453Z,69.93
2022-10-11T13:42:49.383Z,68.39
2022-10-11T13:45:52.184Z,67.95
2022-10-11T13:48:58.335Z,68.41
2022-10-11T13:52:01.511Z,67.75
2022-10-11T13:55:10.480Z,67.46
2022-10-11T13:58:18.740Z,67.24
2022-10-11T14:01:23.841Z,66.84
2022-10-11T14:04:29.471Z,67.82
2022-10-11T14:07:37.383Z,66.35
2022-10-11T14:10:39.337Z,66.27
2022-10-11T14:13:43.439Z,65.44
2022-10-11T14:16:54.555Z,65.18
2022-10-11T14:20:11.218Z,64.92
2022-10-11T14:23:14.350Z,65.20
2022-10-11T14:26:18.927Z,66.03
2022-10-11T14:29:26.657Z,65.61
2022-10-11T14:32:30.879Z,64.59
2022-10-11T14:35:32.645Z,65.42
2022-10-11T14:38:34.205Z,64.42
2022-10-11T14:41:35.979Z,64.41
2022-10-11T14:44:39.077Z,64.27
2022-10-11T14:47:43.092Z,63.36
2022-10-11T14:50:47.860Z,63.71
2022-10-11T14:53:49.561Z,64.23
2022-10-11T14:56:51.854Z,64.14
2022-10-11T14:59:55.190Z,64.69
2022-10-11T15:02:57.427Z,64.57
2022-10-11T15:05:58.987Z,64.73
2022-10-11T15:09:00.583Z,64.07
2022-10-11T15:12:02.175Z,64.64
2022-10-11T15:15:06.357Z,64.96
2022-10-11T15:18:11.143Z,64.79
2022-10-11T15:21:22.418Z,64.80
2022-10-11T15:24:25.894Z,65.43
2022-10-11T15:27:28.728Z,64.97
2022-10-11T15:30:37.137Z,64.69
2022-10-11T15:33:42.091Z,64.98
2022-10-11T15:36:44.135Z,65.29
2022-10-11T15:39:45.748Z,65.73
2022-10-11T15:42:47.508Z,65.96
2022-10-11T15:45:50.566Z,65.88
2022-10-11T15:48:52.592Z,66.26
2022-10-11T15:51:54.426Z,66.67
2022-10-11T15:54:56.111Z,66.38
2022-10-11T15:57:58.372Z,66.29
2022-10-11T16:01:05.799Z,67.00
2022-10-11T16:04:07.998Z,66.96
2022-10-11T16:07:09.584Z,67.32
2022-10-11T16:10:11.211Z,67.88
2022-10-11T16:13:12.899Z,68.17
2022-10-11T16:16:15.883Z,68.70
2022-10-11T16:19:17.417Z,68.79
2022-10-11T16:22:19.223Z,68.72
2022-10-11T16:25:21.711Z,70.26
2022-10-11T16:28:23.436Z,70.64
2022-10-11T16:31:26.577Z,70.52
2022-10-11T16:34:28.352Z,70.89
2022-10-11T16:37:31.005Z,70.55
2022-10-11T16:40:35.160Z,71.18
2022-10-11T16:43:37.442Z,72.31
2022-10-11T16:46:40.514Z,73.12
2022-10-11T16:49:42.177Z,74.10
2022-10-11T16:52:43.758Z,74.77
2022-10-11T16:55:45.333Z,75.19
2022-10-11T16:58:47.001Z,75.52
2022-10-11T17:01:50.707Z,75.81
2022-10-11T17:04:53.996Z,76.33
2022-10-11T17:07:56.073Z,76.47
2022-10-11T17:10:58.254Z,76.70
2022-10-11T17:14:00.777Z,76.57
2022-10-11T17:17:04.662Z,76.80
2022-10-11T17:20:07.814Z,77.29
2022-10-11T17:23:09.554Z,77.41
2022-10-11T17:26:14.871Z,77.73
2022-10-11T17:29:17.172Z,77.80
2022-10-11T17:32:20.140Z,77.80
2022-10-11T17:35:21.931Z,77.97
2022-10-11T17:38:27.302Z,78.34
2022-10-11T17:41:32.043Z,78.35
2022-10-11T17:44:35.072Z,78.47
2022-10-11T17:47:39.164Z,78.74
2022-10-11T17:50:41.840Z,78.11
2022-10-11T17:53:43.815Z,78.21
2022-10-11T17:56:45.484Z,78.43
2022-10-11T17:59:47.211Z,78.51
2022-10-11T18:02:50.532Z,78.66
2022-10-11T18:05:52.611Z,78.61
2022-10-11T18:08:54.677Z,78.53
2022-10-11T18:11:56.307Z,78.34
2022-10-11T18:14:58.072Z,78.70
2022-10-11T18:18:01.369Z,79.14
2022-10-11T18:21:03.345Z,79.50
2022-10-11T18:24:06.241Z,79.65
2022-10-11T18:27:08.018Z,80.04
2022-10-11T18:30:10.093Z,80.23
2022-10-11T18:33:13.581Z,80.37
2022-10-11T18:36:16.392Z,80.47
2022-10-11T18:39:19.292Z,80.68
2022-10-11T18:42:21.508Z,81.08
2022-10-11T18:45:23.177Z,80.23
2022-10-11T18:48:27.501Z,80.35
2022-10-11T18:51:30.141Z,80.48
2022-10-11T18:54:32.165Z,81.21
2022-10-11T18:57:34.599Z,81.03
2022-10-11T19:00:41.184Z,81.63
2022-10-11T19:03:44.846Z,81.61
2022-10-11T19:06:50.577Z,81.69
2022-10-11T19:09:52.134Z,82.14
2022-10-11T19:12:54.827Z,82.21
2022-10-11T19:15:56.457Z,81.43
2022-10-11T19:18:59.966Z,81.25
2022-10-11T19:22:03.294Z,81.25
2022-10-11T19:25:05.247Z,81.07
2022-10-11T19:28:06.830Z,80.71
2022-10-11T19:31:18.029Z,80.25
2022-10-11T19:34:21.635Z,80.64
2022-10-11T19:37:23.251Z,81.45
2022-10-11T19:40:24.999Z,81.89
2022-10-11T19:43:26.568Z,82.24
2022-10-11T19:49:51.238Z,82.71
2022-10-11T19:52:52.839Z,82.20
2022-10-11T19:55:54.287Z,81.98
2022-10-11T19:58:56.006Z,82.40
2022-10-11T20:01:57.752Z,81.84
2022-10-11T20:05:00.841Z,82.04
2022-10-11T20:08:02.431Z,81.81
2022-10-11T20:11:04.939Z,81.78
2022-10-11T20:14:06.726Z,81.66
2022-10-11T20:17:08.223Z,82.14
2022-10-11T20:20:11.418Z,81.66
2022-10-11T20:23:17.657Z,82.04
2022-10-11T20:26:24.617Z,81.95
2022-10-11T20:29:29.197Z,82.18
2022-10-11T20:32:31.166Z,82.51
2022-10-11T20:35:34.209Z,82.67
2022-10-11T20:38:36.488Z,83.05
2022-10-11T20:41:40.063Z,82.15
2022-10-11T20:44:43.725Z,82.57
2022-10-11T20:47:45.506Z,82.51
2022-10-11T20:50:48.487Z,83.20
2022-10-11T20:53:50.732Z,83.60
2022-10-11T20:56:52.415Z,83.70
2022-10-11T20:59:54.161Z,83.79
2022-10-11T21:02:55.902Z,84.43
2022-10-11T21:06:00.051Z,84.88
2022-10-11T21:09:01.886Z,84.87
2022-10-11T21:12:03.781Z,84.65
2022-10-11T21:15:05.945Z,85.05
2022-10-11T21:18:08.100Z,85.07
2022-10-11T21:21:12.319Z,84.86
2022-10-11T21:24:14.918Z,84.76
2022-10-11T21:27:16.684Z,84.65
2022-10-11T21:30:18.587Z,84.14
2022-10-11T21:33:20.437Z,84.00
2022-10-11T21:36:24.994Z,84.20
2022-10-11T21:39:26.772Z,84.63
2022-10-11T21:42:29.687Z,84.40
2022-10-11T21:45:31.391Z,84.34
2022-10-11T21:48:33.523Z,85.10
2022-10-11T21:51:36.727Z,84.70
2022-10-11T21:54:38.769Z,84.58
2022-10-11T21:57:41.308Z,84.77
2022-10-11T22:00:43.518Z,84.54
2022-10-11T22:03:45.817Z,84.35
2022-10-11T22:06:49.475Z,84.64
2022-10-11T22:09:51.157Z,84.72
2022-10-11T22:12:53.034Z,84.49
2022-10-11T22:15:56.432Z,85.33
2022-10-11T22:18:58.016Z,84.93
2022-10-11T22:22:01.637Z,85.24
2022-10-11T22:25:03.553Z,85.32
2022-10-11T22:28:05.610Z,85.88
2022-10-11T22:31:07.703Z,85.73
2022-10-11T22:34:09.409Z,85.84
2022-10-11T22:37:12.348Z,85.34
2022-10-11T22:40:13.930Z,85.68
2022-10-11T22:43:15.601Z,85.75
2022-10-11T22:46:17.301Z,85.81
2022-10-11T22:49:18.972Z,85.99
2022-10-11T22:52:22.223Z,85.68
2022-10-11T22:55:26.006Z,86.21
2022-10-11T22:58:27.681Z,86.11
2022-10-11T23:01:29.395Z,86.15
2022-10-11T23:04:31.175Z,86.37
2022-10-11T23:07:34.653Z,86.80
2022-10-11T23:10:38.199Z,86.83
2022-10-11T23:13:40.046Z,87.04
2022-10-11T23:16:41.719Z,86.53
2022-10-11T23:19:43.658Z,87.00
2022-10-11T23:22:46.704Z,86.97
2022-10-11T23:25:48.329Z,87.36
2022-10-11T23:28:53.564Z,86.95
2022-10-11T23:31:55.361Z,87.51
2022-10-11T23:34:56.932Z,87.52
2022-10-11T23:38:00.122Z,87.29
2022-10-11T23:41:01.840Z,87.29
2022-10-11T23:44:03.302Z,87.15
2022-10-11T23:47:04.918Z,87.33
2022-10-11T23:50:07.158Z,87.06
2022-10-11T23:53:13.786Z,87.86
2022-10-11T23:56:15.377Z,87.34
2022-10-11T23:59:18.449Z,87.57
